sensor_id;sensor_type;location;lat;lon;timestamp;P1;durP1;ratioP1;P2;durP2;ratioP2
7029;SDS011;3556;53.500;10.176;2022-10-16T00:01:45;8.63;;;7.83;;
7029;SDS011;3556;53.500;10.176;2022-10-16T00:04:11;9.60;;;8.80;;
7029;SDS011;3556;53.500;10.176;2022-10-16T00:06:37;9.70;;;8.77;;
7029;SDS011;3556;53.500;10.176;2022-10-16T00:09:03;7.67;;;7.27;;
7029;SDS011;3556;53.500;10.176;2022-10-16T00:11:30;8.33;;;7.73;;
7029;SDS011;3556;53.500;10.176;2022-10-16T00:14:02;7.80;;;7.10;;
7029;SDS011;3556;53.500;10.176;2022-10-16T00:16:30;9.00;;;8.40;;
7029;SDS011;3556;53.500;10.176;2022-10-16T00:18:56;9.37;;;8.20;;
7029;SDS011;3556;53.500;10.176;2022-10-16T00:21:23;7.73;;;7.17;;
7029;SDS011;3556;53.500;10.176;2022-10-16T00:23:52;8.53;;;7.93;;
7029;SDS011;3556;53.500;10.176;2022-10-16T00:26:20;6.90;;;6.60;;
7029;SDS011;3556;53.500;10.176;2022-10-16T00:28:46;8.67;;;7.80;;
7029;SDS011;3556;53.500;10.176;2022-10-16T00:31:13;6.83;;;6.53;;
7029;SDS011;3556;53.500;10.176;2022-10-16T00:33:39;7.20;;;6.80;;
7029;SDS011;3556;53.500;10.176;2022-10-16T00:36:06;12.73;;;7.33;;
7029;SDS011;3556;53.500;10.176;2022-10-16T00:38:33;8.00;;;7.50;;
7029;SDS011;3556;53.500;10.176;2022-10-16T00:40:59;7.83;;;7.23;;
7029;SDS011;3556;53.500;10.176;2022-10-16T00:43:35;8.07;;;7.37;;
7029;SDS011;3556;53.500;10.176;2022-10-16T00:48:49;9.87;;;8.27;;
7029;SDS011;3556;53.500;10.176;2022-10-16T00:51:25;9.90;;;8.27;;
7029;SDS011;3556;53.500;10.176;2022-10-16T00:53:58;9.83;;;8.20;;
7029;SDS011;3556;53.500;10.176;2022-10-16T00:56:24;9.00;;;8.40;;
7029;SDS011;3556;53.500;10.176;2022-10-16T00:58:50;7.90;;;7.40;;
7029;SDS011;3556;53.500;10.176;2022-10-16T01:01:15;7.70;;;7.23;;
7029;SDS011;3556;53.500;10.176;2022-10-16T01:03:41;7.63;;;7.30;;
7029;SDS011;3556;53.500;10.176;2022-10-16T01:06:19;11.43;;;8.23;;
7029;SDS011;3556;53.500;10.176;2022-10-16T01:11:32;7.00;;;6.57;;
7029;SDS011;3556;53.500;10.176;2022-10-16T01:14:06;7.03;;;6.50;;
7029;SDS011;3556;53.500;10.176;2022-10-16T01:19:20;7.30;;;6.83;;
7029;SDS011;3556;53.500;10.176;2022-10-16T01:21:49;7.50;;;7.07;;
7029;SDS011;3556;53.500;10.176;2022-10-16T01:27:05;8.03;;;7.53;;
7029;SDS011;3556;53.500;10.176;2022-10-16T01:32:31;8.83;;;7.63;;
7029;SDS011;3556;53.500;10.176;2022-10-16T01:35:22;7.83;;;7.20;;
7029;SDS011;3556;53.500;10.176;2022-10-16T01:38:11;7.93;;;7.27;;
7029;SDS011;3556;53.500;10.176;2022-10-16T01:40:42;7.40;;;6.80;;
7029;SDS011;3556;53.500;10.176;2022-10-16T01:43:14;14.00;;;6.50;;
7029;SDS011;3556;53.500;10.176;2022-10-16T01:45:44;6.70;;;5.70;;
7029;SDS011;3556;53.500;10.176;2022-10-16T01:48:12;6.00;;;5.80;;
7029;SDS011;3556;53.500;10.176;2022-10-16T01:50:41;4.77;;;4.57;;
7029;SDS011;3556;53.500;10.176;2022-10-16T01:53:10;4.60;;;4.40;;
7029;SDS011;3556;53.500;10.176;2022-10-16T01:55:39;5.43;;;4.40;;
7029;SDS011;3556;53.500;10.176;2022-10-16T01:58:10;5.30;;;4.80;;
7029;SDS011;3556;53.500;10.176;2022-10-16T02:00:38;4.50;;;4.10;;
7029;SDS011;3556;53.500;10.176;2022-10-16T02:03:07;7.50;;;3.83;;
7029;SDS011;3556;53.500;10.176;2022-10-16T02:08:03;4.63;;;4.37;;
7029;SDS011;3556;53.500;10.176;2022-10-16T02:10:29;7.40;;;3.93;;
7029;SDS011;3556;53.500;10.176;2022-10-16T02:13:05;3.80;;;3.63;;
7029;SDS011;3556;53.500;10.176;2022-10-16T02:15:35;11.73;;;3.93;;
7029;SDS011;3556;53.500;10.176;2022-10-16T02:18:01;3.67;;;3.37;;
7029;SDS011;3556;53.500;10.176;2022-10-16T02:20:28;5.47;;;3.90;;
7029;SDS011;3556;53.500;10.176;2022-10-16T02:23:00;4.50;;;3.20;;
7029;SDS011;3556;53.500;10.176;2022-10-16T02:25:31;3.83;;;3.63;;
7029;SDS011;3556;53.500;10.176;2022-10-16T02:30:39;3.40;;;3.17;;
7029;SDS011;3556;53.500;10.176;2022-10-16T02:33:10;4.00;;;3.80;;
7029;SDS011;3556;53.500;10.176;2022-10-16T02:35:40;3.60;;;3.37;;
7029;SDS011;3556;53.500;10.176;2022-10-16T02:38:08;3.50;;;3.17;;
7029;SDS011;3556;53.500;10.176;2022-10-16T02:40:34;3.70;;;3.50;;
7029;SDS011;3556;53.500;10.176;2022-10-16T02:43:02;3.30;;;3.10;;
7029;SDS011;3556;53.500;10.176;2022-10-16T02:45:29;3.03;;;2.90;;
7029;SDS011;3556;53.500;10.176;2022-10-16T02:47:54;8.17;;;2.80;;
7029;SDS011;3556;53.500;10.176;2022-10-16T02:50:20;3.97;;;2.87;;
7029;SDS011;3556;53.500;10.176;2022-10-16T02:52:47;8.00;;;3.10;;
7029;SDS011;3556;53.500;10.176;2022-10-16T02:55:13;3.27;;;3.00;;
7029;SDS011;3556;53.500;10.176;2022-10-16T02:57:38;5.03;;;2.60;;
7029;SDS011;3556;53.500;10.176;2022-10-16T03:00:05;2.87;;;2.77;;
7029;SDS011;3556;53.500;10.176;2022-10-16T03:02:35;2.93;;;2.73;;
7029;SDS011;3556;53.500;10.176;2022-10-16T03:05:01;2.40;;;2.30;;
7029;SDS011;3556;53.500;10.176;2022-10-16T03:07:26;2.67;;;2.53;;
7029;SDS011;3556;53.500;10.176;2022-10-16T03:09:52;3.17;;;2.97;;
7029;SDS011;3556;53.500;10.176;2022-10-16T03:12:17;2.77;;;2.57;;
7029;SDS011;3556;53.500;10.176;2022-10-16T03:14:43;2.40;;;2.23;;
7029;SDS011;3556;53.500;10.176;2022-10-16T03:17:09;2.50;;;2.40;;
7029;SDS011;3556;53.500;10.176;2022-10-16T03:19:35;2.30;;;2.20;;
7029;SDS011;3556;53.500;10.176;2022-10-16T03:22:00;2.40;;;2.30;;
7029;SDS011;3556;53.500;10.176;2022-10-16T03:24:26;2.30;;;2.20;;
7029;SDS011;3556;53.500;10.176;2022-10-16T03:26:52;2.60;;;2.50;;
7029;SDS011;3556;53.500;10.176;2022-10-16T03:29:17;2.40;;;2.30;;
7029;SDS011;3556;53.500;10.176;2022-10-16T03:31:43;2.77;;;2.67;;
7029;SDS011;3556;53.500;10.176;2022-10-16T03:34:09;2.50;;;2.30;;
7029;SDS011;3556;53.500;10.176;2022-10-16T03:36:34;6.20;;;2.80;;
7029;SDS011;3556;53.500;10.176;2022-10-16T03:39:00;3.10;;;2.87;;
7029;SDS011;3556;53.500;10.176;2022-10-16T03:41:25;3.63;;;2.67;;
7029;SDS011;3556;53.500;10.176;2022-10-16T03:43:51;3.13;;;2.80;;
7029;SDS011;3556;53.500;10.176;2022-10-16T03:46:16;3.57;;;2.50;;
7029;SDS011;3556;53.500;10.176;2022-10-16T03:48:42;2.63;;;2.53;;
7029;SDS011;3556;53.500;10.176;2022-10-16T03:51:08;2.30;;;2.20;;
7029;SDS011;3556;53.500;10.176;2022-10-16T03:53:33;2.93;;;2.80;;
7029;SDS011;3556;53.500;10.176;2022-10-16T03:55:59;6.47;;;2.50;;
7029;SDS011;3556;53.500;10.176;2022-10-16T03:58:25;6.67;;;2.80;;
7029;SDS011;3556;53.500;10.176;2022-10-16T04:00:50;2.87;;;2.77;;
7029;SDS011;3556;53.500;10.176;2022-10-16T04:03:16;2.80;;;2.70;;
7029;SDS011;3556;53.500;10.176;2022-10-16T04:05:43;3.13;;;2.83;;
7029;SDS011;3556;53.500;10.176;2022-10-16T04:08:09;3.23;;;2.83;;
7029;SDS011;3556;53.500;10.176;2022-10-16T04:10:34;2.70;;;2.60;;
7029;SDS011;3556;53.500;10.176;2022-10-16T04:13:00;7.30;;;2.60;;
7029;SDS011;3556;53.500;10.176;2022-10-16T04:15:26;2.57;;;2.10;;
7029;SDS011;3556;53.500;10.176;2022-10-16T04:17:51;3.47;;;2.30;;
7029;SDS011;3556;53.500;10.176;2022-10-16T04:20:17;2.63;;;2.43;;
7029;SDS011;3556;53.500;10.176;2022-10-16T04:22:43;2.30;;;2.20;;
7029;SDS011;3556;53.500;10.176;2022-10-16T04:25:09;2.40;;;2.20;;
7029;SDS011;3556;53.500;10.176;2022-10-16T04:27:36;6.13;;;3.20;;
7029;SDS011;3556;53.500;10.176;2022-10-16T04:30:02;4.00;;;2.47;;
7029;SDS011;3556;53.500;10.176;2022-10-16T04:32:28;2.77;;;2.47;;
7029;SDS011;3556;53.500;10.176;2022-10-16T04:34:54;5.03;;;2.80;;
7029;SDS011;3556;53.500;10.176;2022-10-16T04:37:23;2.60;;;2.50;;
7029;SDS011;3556;53.500;10.176;2022-10-16T04:39:50;2.40;;;2.20;;
7029;SDS011;3556;53.500;10.176;2022-10-16T04:42:15;2.50;;;2.30;;
7029;SDS011;3556;53.500;10.176;2022-10-16T04:44:41;4.53;;;2.60;;
7029;SDS011;3556;53.500;10.176;2022-10-16T04:47:07;2.27;;;2.17;;
7029;SDS011;3556;53.500;10.176;2022-10-16T04:49:33;4.80;;;2.37;;
7029;SDS011;3556;53.500;10.176;2022-10-16T04:51:58;2.47;;;2.37;;
7029;SDS011;3556;53.500;10.176;2022-10-16T04:54:24;2.70;;;2.60;;
7029;SDS011;3556;53.500;10.176;2022-10-16T04:56:49;2.40;;;2.30;;
7029;SDS011;3556;53.500;10.176;2022-10-16T04:59:17;2.67;;;2.57;;
7029;SDS011;3556;53.500;10.176;2022-10-16T05:01:43;4.10;;;2.33;;
7029;SDS011;3556;53.500;10.176;2022-10-16T05:04:09;6.30;;;2.43;;
7029;SDS011;3556;53.500;10.176;2022-10-16T05:06:35;4.53;;;2.67;;
7029;SDS011;3556;53.500;10.176;2022-10-16T05:09:01;7.80;;;2.73;;
7029;SDS011;3556;53.500;10.176;2022-10-16T05:11:27;3.77;;;2.20;;
7029;SDS011;3556;53.500;10.176;2022-10-16T05:13:53;2.77;;;2.57;;
7029;SDS011;3556;53.500;10.176;2022-10-16T05:16:18;8.83;;;2.67;;
7029;SDS011;3556;53.500;10.176;2022-10-16T05:18:44;3.20;;;3.00;;
7029;SDS011;3556;53.500;10.176;2022-10-16T05:21:09;3.40;;;2.80;;
7029;SDS011;3556;53.500;10.176;2022-10-16T05:23:35;3.10;;;2.90;;
7029;SDS011;3556;53.500;10.176;2022-10-16T05:26:00;2.80;;;2.70;;
7029;SDS011;3556;53.500;10.176;2022-10-16T05:28:26;2.30;;;2.20;;
7029;SDS011;3556;53.500;10.176;2022-10-16T05:30:53;2.90;;;2.70;;
7029;SDS011;3556;53.500;10.176;2022-10-16T05:33:23;3.33;;;2.90;;
7029;SDS011;3556;53.500;10.176;2022-10-16T05:35:49;2.70;;;2.60;;
7029;SDS011;3556;53.500;10.176;2022-10-16T05:38:16;4.07;;;2.80;;
7029;SDS011;3556;53.500;10.176;2022-10-16T05:40:42;3.10;;;2.90;;
7029;SDS011;3556;53.500;10.176;2022-10-16T05:43:08;3.23;;;2.60;;
7029;SDS011;3556;53.500;10.176;2022-10-16T05:45:33;3.20;;;3.00;;
7029;SDS011;3556;53.500;10.176;2022-10-16T05:48:00;5.23;;;2.97;;
7029;SDS011;3556;53.500;10.176;2022-10-16T05:50:26;2.97;;;2.70;;
7029;SDS011;3556;53.500;10.176;2022-10-16T05:52:52;2.60;;;2.50;;
7029;SDS011;3556;53.500;10.176;2022-10-16T05:55:17;3.27;;;2.97;;
7029;SDS011;3556;53.500;10.176;2022-10-16T05:57:43;3.40;;;3.00;;
7029;SDS011;3556;53.500;10.176;2022-10-16T06:00:09;3.03;;;2.90;;
7029;SDS011;3556;53.500;10.176;2022-10-16T06:02:35;3.67;;;2.77;;
7029;SDS011;3556;53.500;10.176;2022-10-16T06:05:01;3.07;;;2.87;;
7029;SDS011;3556;53.500;10.176;2022-10-16T06:07:26;3.97;;;2.77;;
7029;SDS011;3556;53.500;10.176;2022-10-16T06:09:52;2.57;;;2.47;;
7029;SDS011;3556;53.500;10.176;2022-10-16T06:12:18;3.10;;;2.80;;
7029;SDS011;3556;53.500;10.176;2022-10-16T06:14:45;6.87;;;2.77;;
7029;SDS011;3556;53.500;10.176;2022-10-16T06:17:13;5.50;;;2.90;;
7029;SDS011;3556;53.500;10.176;2022-10-16T06:19:39;3.77;;;2.50;;
7029;SDS011;3556;53.500;10.176;2022-10-16T06:22:06;3.33;;;3.13;;
7029;SDS011;3556;53.500;10.176;2022-10-16T06:24:32;3.27;;;2.47;;
7029;SDS011;3556;53.500;10.176;2022-10-16T06:26:57;3.33;;;3.13;;
7029;SDS011;3556;53.500;10.176;2022-10-16T06:29:23;4.10;;;2.87;;
7029;SDS011;3556;53.500;10.176;2022-10-16T06:31:48;5.40;;;3.60;;
7029;SDS011;3556;53.500;10.176;2022-10-16T06:34:14;3.57;;;3.27;;
7029;SDS011;3556;53.500;10.176;2022-10-16T06:36:40;3.40;;;3.20;;
7029;SDS011;3556;53.500;10.176;2022-10-16T06:39:06;3.83;;;3.63;;
7029;SDS011;3556;53.500;10.176;2022-10-16T06:41:32;19.83;;;3.40;;
7029;SDS011;3556;53.500;10.176;2022-10-16T06:43:58;4.40;;;4.00;;
7029;SDS011;3556;53.500;10.176;2022-10-16T06:46:25;3.90;;;3.60;;
7029;SDS011;3556;53.500;10.176;2022-10-16T06:48:51;4.40;;;4.00;;
7029;SDS011;3556;53.500;10.176;2022-10-16T06:51:18;4.90;;;4.03;;
7029;SDS011;3556;53.500;10.176;2022-10-16T06:53:52;6.23;;;3.73;;
7029;SDS011;3556;53.500;10.176;2022-10-16T06:56:25;21.10;;;4.17;;
7029;SDS011;3556;53.500;10.176;2022-10-16T06:58:52;8.00;;;4.37;;
7029;SDS011;3556;53.500;10.176;2022-10-16T07:01:19;6.83;;;4.10;;
7029;SDS011;3556;53.500;10.176;2022-10-16T07:03:47;5.57;;;5.00;;
7029;SDS011;3556;53.500;10.176;2022-10-16T07:06:14;8.00;;;4.83;;
7029;SDS011;3556;53.500;10.176;2022-10-16T07:08:42;5.23;;;4.73;;
7029;SDS011;3556;53.500;10.176;2022-10-16T07:11:10;10.60;;;5.70;;
7029;SDS011;3556;53.500;10.176;2022-10-16T07:13:40;18.40;;;5.50;;
7029;SDS011;3556;53.500;10.176;2022-10-16T07:16:11;11.20;;;5.57;;
7029;SDS011;3556;53.500;10.176;2022-10-16T07:18:39;7.70;;;5.83;;
7029;SDS011;3556;53.500;10.176;2022-10-16T07:21:06;5.80;;;5.50;;
7029;SDS011;3556;53.500;10.176;2022-10-16T07:23:33;6.50;;;5.90;;
7029;SDS011;3556;53.500;10.176;2022-10-16T07:25:58;7.00;;;6.33;;
7029;SDS011;3556;53.500;10.176;2022-10-16T07:28:24;7.90;;;6.30;;
7029;SDS011;3556;53.500;10.176;2022-10-16T07:30:50;8.70;;;6.47;;
7029;SDS011;3556;53.500;10.176;2022-10-16T07:33:15;6.97;;;6.37;;
7029;SDS011;3556;53.500;10.176;2022-10-16T07:35:51;12.63;;;6.23;;
7029;SDS011;3556;53.500;10.176;2022-10-16T07:38:17;11.27;;;6.13;;
7029;SDS011;3556;53.500;10.176;2022-10-16T07:40:43;7.03;;;6.40;;
7029;SDS011;3556;53.500;10.176;2022-10-16T07:43:09;12.20;;;5.90;;
7029;SDS011;3556;53.500;10.176;2022-10-16T07:45:35;9.03;;;5.53;;
7029;SDS011;3556;53.500;10.176;2022-10-16T07:48:01;5.47;;;4.93;;
7029;SDS011;3556;53.500;10.176;2022-10-16T07:50:26;5.77;;;4.50;;
7029;SDS011;3556;53.500;10.176;2022-10-16T07:52:52;4.60;;;4.30;;
7029;SDS011;3556;53.500;10.176;2022-10-16T07:55:17;4.07;;;3.80;;
7029;SDS011;3556;53.500;10.176;2022-10-16T07:57:43;4.23;;;4.00;;
7029;SDS011;3556;53.500;10.176;2022-10-16T08:00:09;4.10;;;3.80;;
7029;SDS011;3556;53.500;10.176;2022-10-16T08:02:38;5.00;;;3.53;;
7029;SDS011;3556;53.500;10.176;2022-10-16T08:05:05;3.80;;;3.50;;
7029;SDS011;3556;53.500;10.176;2022-10-16T08:07:31;3.70;;;3.17;;
7029;SDS011;3556;53.500;10.176;2022-10-16T08:09:56;4.73;;;3.50;;
7029;SDS011;3556;53.500;10.176;2022-10-16T08:12:23;3.57;;;3.30;;
7029;SDS011;3556;53.500;10.176;2022-10-16T08:14:50;4.37;;;3.97;;
7029;SDS011;3556;53.500;10.176;2022-10-16T08:17:16;4.37;;;3.10;;
7029;SDS011;3556;53.500;10.176;2022-10-16T08:19:45;6.27;;;2.80;;
7029;SDS011;3556;53.500;10.176;2022-10-16T08:22:12;7.43;;;3.00;;
7029;SDS011;3556;53.500;10.176;2022-10-16T08:24:38;5.17;;;3.30;;
7029;SDS011;3556;53.500;10.176;2022-10-16T08:27:04;3.23;;;3.03;;
7029;SDS011;3556;53.500;10.176;2022-10-16T08:29:30;3.33;;;3.13;;
7029;SDS011;3556;53.500;10.176;2022-10-16T08:31:55;3.40;;;3.10;;
7029;SDS011;3556;53.500;10.176;2022-10-16T08:34:21;3.93;;;2.87;;
7029;SDS011;3556;53.500;10.176;2022-10-16T08:36:46;3.07;;;2.30;;
7029;SDS011;3556;53.500;10.176;2022-10-16T08:39:12;2.60;;;2.50;;
7029;SDS011;3556;53.500;10.176;2022-10-16T08:44:35;2.40;;;2.20;;
7029;SDS011;3556;53.500;10.176;2022-10-16T08:50:10;5.43;;;2.33;;
7029;SDS011;3556;53.500;10.176;2022-10-16T08:52:38;2.43;;;2.20;;
7029;SDS011;3556;53.500;10.176;2022-10-16T08:55:09;2.43;;;2.33;;
7029;SDS011;3556;53.500;10.176;2022-10-16T08:57:54;4.03;;;2.40;;
7029;SDS011;3556;53.500;10.176;2022-10-16T09:00:20;2.73;;;2.30;;
7029;SDS011;3556;53.500;10.176;2022-10-16T09:03:00;8.37;;;2.37;;
7029;SDS011;3556;53.500;10.176;2022-10-16T09:10:38;7.93;;;2.37;;
7029;SDS011;3556;53.500;10.176;2022-10-16T09:18:59;6.73;;;2.40;;
7029;SDS011;3556;53.500;10.176;2022-10-16T09:21:30;2.03;;;1.93;;
7029;SDS011;3556;53.500;10.176;2022-10-16T09:24:16;2.97;;;1.90;;
7029;SDS011;3556;53.500;10.176;2022-10-16T09:26:44;3.17;;;2.40;;
7029;SDS011;3556;53.500;10.176;2022-10-16T09:29:13;5.93;;;2.10;;
7029;SDS011;3556;53.500;10.176;2022-10-16T09:31:41;2.37;;;2.00;;
7029;SDS011;3556;53.500;10.176;2022-10-16T09:34:13;3.70;;;2.37;;
7029;SDS011;3556;53.500;10.176;2022-10-16T09:36:52;2.10;;;2.00;;
7029;SDS011;3556;53.500;10.176;2022-10-16T09:39:18;2.27;;;2.10;;
7029;SDS011;3556;53.500;10.176;2022-10-16T09:41:44;2.50;;;2.40;;
7029;SDS011;3556;53.500;10.176;2022-10-16T09:44:27;2.37;;;2.17;;
7029;SDS011;3556;53.500;10.176;2022-10-16T09:47:04;1.90;;;1.80;;
7029;SDS011;3556;53.500;10.176;2022-10-16T09:49:37;7.33;;;1.90;;
7029;SDS011;3556;53.500;10.176;2022-10-16T09:52:06;2.40;;;1.70;;
7029;SDS011;3556;53.500;10.176;2022-10-16T09:54:48;4.93;;;2.10;;
7029;SDS011;3556;53.500;10.176;2022-10-16T09:57:48;3.30;;;1.50;;
7029;SDS011;3556;53.500;10.176;2022-10-16T10:00:17;4.50;;;1.80;;
7029;SDS011;3556;53.500;10.176;2022-10-16T10:02:44;1.83;;;1.73;;
7029;SDS011;3556;53.500;10.176;2022-10-16T10:05:28;4.13;;;1.40;;
7029;SDS011;3556;53.500;10.176;2022-10-16T10:07:55;2.07;;;1.70;;
7029;SDS011;3556;53.500;10.176;2022-10-16T10:10:31;2.60;;;1.70;;
7029;SDS011;3556;53.500;10.176;2022-10-16T10:12:58;3.87;;;1.40;;
7029;SDS011;3556;53.500;10.176;2022-10-16T10:15:24;3.00;;;1.33;;
7029;SDS011;3556;53.500;10.176;2022-10-16T10:17:58;5.03;;;1.77;;
7029;SDS011;3556;53.500;10.176;2022-10-16T10:22:54;2.80;;;1.50;;
7029;SDS011;3556;53.500;10.176;2022-10-16T10:36:29;3.53;;;1.20;;
7029;SDS011;3556;53.500;10.176;2022-10-16T10:39:18;1.70;;;1.37;;
7029;SDS011;3556;53.500;10.176;2022-10-16T10:42:05;6.30;;;1.27;;
7029;SDS011;3556;53.500;10.176;2022-10-16T10:50:30;2.67;;;1.20;;
7029;SDS011;3556;53.500;10.176;2022-10-16T10:53:09;1.63;;;1.03;;
7029;SDS011;3556;53.500;10.176;2022-10-16T10:55:54;2.60;;;1.20;;
7029;SDS011;3556;53.500;10.176;2022-10-16T10:58:50;6.10;;;1.17;;
7029;SDS011;3556;53.500;10.176;2022-10-16T11:01:30;1.27;;;1.17;;
7029;SDS011;3556;53.500;10.176;2022-10-16T11:06:48;3.20;;;1.00;;
7029;SDS011;3556;53.500;10.176;2022-10-16T11:09:23;2.50;;;1.20;;
7029;SDS011;3556;53.500;10.176;2022-10-16T11:12:04;2.80;;;1.10;;
7029;SDS011;3556;53.500;10.176;2022-10-16T11:17:12;0.80;;;0.70;;
7029;SDS011;3556;53.500;10.176;2022-10-16T11:27:54;3.27;;;0.90;;
7029;SDS011;3556;53.500;10.176;2022-10-16T11:30:29;2.30;;;0.90;;
7029;SDS011;3556;53.500;10.176;2022-10-16T11:46:29;2.27;;;0.93;;
7029;SDS011;3556;53.500;10.176;2022-10-16T11:49:00;1.20;;;0.87;;
7029;SDS011;3556;53.500;10.176;2022-10-16T11:51:38;1.27;;;1.17;;
7029;SDS011;3556;53.500;10.176;2022-10-16T11:56:58;2.40;;;0.80;;
7029;SDS011;3556;53.500;10.176;2022-10-16T11:59:32;5.60;;;1.10;;
7029;SDS011;3556;53.500;10.176;2022-10-16T12:10:39;3.07;;;1.30;;
7029;SDS011;3556;53.500;10.176;2022-10-16T12:18:39;1.43;;;0.80;;
7029;SDS011;3556;53.500;10.176;2022-10-16T12:21:05;1.67;;;0.90;;
7029;SDS011;3556;53.500;10.176;2022-10-16T12:23:54;3.63;;;1.07;;
7029;SDS011;3556;53.500;10.176;2022-10-16T12:26:29;2.70;;;1.00;;
7029;SDS011;3556;53.500;10.176;2022-10-16T12:29:17;1.73;;;1.07;;
7029;SDS011;3556;53.500;10.176;2022-10-16T12:31:50;3.10;;;1.00;;
7029;SDS011;3556;53.500;10.176;2022-10-16T12:34:21;1.63;;;1.00;;
7029;SDS011;3556;53.500;10.176;2022-10-16T12:36:51;3.10;;;1.23;;
7029;SDS011;3556;53.500;10.176;2022-10-16T12:39:27;1.50;;;1.03;;
7029;SDS011;3556;53.500;10.176;2022-10-16T12:42:19;0.80;;;0.80;;
7029;SDS011;3556;53.500;10.176;2022-10-16T12:44:46;2.17;;;1.20;;
7029;SDS011;3556;53.500;10.176;2022-10-16T12:47:23;1.90;;;1.40;;
7029;SDS011;3556;53.500;10.176;2022-10-16T12:49:58;2.60;;;1.27;;
7029;SDS011;3556;53.500;10.176;2022-10-16T12:54:58;4.67;;;1.17;;
7029;SDS011;3556;53.500;10.176;2022-10-16T13:00:21;2.83;;;1.33;;
7029;SDS011;3556;53.500;10.176;2022-10-16T13:11:20;2.93;;;1.10;;
7029;SDS011;3556;53.500;10.176;2022-10-16T13:28:05;2.37;;;1.20;;
7029;SDS011;3556;53.500;10.176;2022-10-16T13:30:42;4.90;;;1.40;;
7029;SDS011;3556;53.500;10.176;2022-10-16T13:35:46;5.83;;;1.00;;
7029;SDS011;3556;53.500;10.176;2022-10-16T13:38:21;6.40;;;1.40;;
7029;SDS011;3556;53.500;10.176;2022-10-16T13:46:18;1.97;;;1.00;;
7029;SDS011;3556;53.500;10.176;2022-10-16T13:48:55;3.87;;;1.87;;
7029;SDS011;3556;53.500;10.176;2022-10-16T13:51:25;4.90;;;1.20;;
7029;SDS011;3556;53.500;10.176;2022-10-16T13:53:51;3.33;;;1.00;;
7029;SDS011;3556;53.500;10.176;2022-10-16T13:56:18;4.63;;;1.47;;
7029;SDS011;3556;53.500;10.176;2022-10-16T13:58:45;8.03;;;1.03;;
7029;SDS011;3556;53.500;10.176;2022-10-16T14:01:23;3.77;;;1.20;;
7029;SDS011;3556;53.500;10.176;2022-10-16T14:03:51;9.33;;;0.87;;
7029;SDS011;3556;53.500;10.176;2022-10-16T14:06:19;2.03;;;1.10;;
7029;SDS011;3556;53.500;10.176;2022-10-16T14:11:33;9.70;;;2.60;;
7029;SDS011;3556;53.500;10.176;2022-10-16T14:14:02;5.13;;;1.43;;
7029;SDS011;3556;53.500;10.176;2022-10-16T14:16:28;1.80;;;1.40;;
7029;SDS011;3556;53.500;10.176;2022-10-16T14:19:00;2.40;;;1.33;;
7029;SDS011;3556;53.500;10.176;2022-10-16T14:21:35;5.43;;;1.20;;
7029;SDS011;3556;53.500;10.176;2022-10-16T14:24:12;6.50;;;1.27;;
7029;SDS011;3556;53.500;10.176;2022-10-16T14:26:45;1.50;;;1.20;;
7029;SDS011;3556;53.500;10.176;2022-10-16T14:29:14;2.63;;;1.30;;
7029;SDS011;3556;53.500;10.176;2022-10-16T14:31:43;1.77;;;0.90;;
7029;SDS011;3556;53.500;10.176;2022-10-16T14:36:55;6.20;;;1.00;;
7029;SDS011;3556;53.500;10.176;2022-10-16T14:39:21;3.00;;;1.50;;
7029;SDS011;3556;53.500;10.176;2022-10-16T14:41:51;5.53;;;1.47;;
7029;SDS011;3556;53.500;10.176;2022-10-16T14:44:17;2.50;;;1.20;;
7029;SDS011;3556;53.500;10.176;2022-10-16T14:46:44;3.03;;;1.57;;
7029;SDS011;3556;53.500;10.176;2022-10-16T14:51:39;1.87;;;1.10;;
7029;SDS011;3556;53.500;10.176;2022-10-16T14:54:08;2.30;;;1.23;;
7029;SDS011;3556;53.500;10.176;2022-10-16T14:56:45;3.33;;;1.13;;
7029;SDS011;3556;53.500;10.176;2022-10-16T14:59:19;1.60;;;1.07;;
7029;SDS011;3556;53.500;10.176;2022-10-16T15:01:50;2.70;;;1.10;;
7029;SDS011;3556;53.500;10.176;2022-10-16T15:04:16;3.17;;;1.60;;
7029;SDS011;3556;53.500;10.176;2022-10-16T15:06:42;2.47;;;1.37;;
7029;SDS011;3556;53.500;10.176;2022-10-16T15:09:08;3.13;;;1.10;;
7029;SDS011;3556;53.500;10.176;2022-10-16T15:11:33;3.77;;;1.10;;
7029;SDS011;3556;53.500;10.176;2022-10-16T15:13:59;1.40;;;1.30;;
7029;SDS011;3556;53.500;10.176;2022-10-16T15:16:26;1.97;;;0.90;;
7029;SDS011;3556;53.500;10.176;2022-10-16T15:18:51;1.03;;;1.00;;
7029;SDS011;3556;53.500;10.176;2022-10-16T15:21:25;5.43;;;1.20;;
7029;SDS011;3556;53.500;10.176;2022-10-16T15:23:55;1.20;;;0.83;;
7029;SDS011;3556;53.500;10.176;2022-10-16T15:26:22;2.07;;;1.20;;
7029;SDS011;3556;53.500;10.176;2022-10-16T15:28:49;10.23;;;1.03;;
7029;SDS011;3556;53.500;10.176;2022-10-16T15:31:15;8.07;;;1.37;;
7029;SDS011;3556;53.500;10.176;2022-10-16T15:33:40;2.07;;;1.20;;
7029;SDS011;3556;53.500;10.176;2022-10-16T15:36:06;4.83;;;1.00;;
7029;SDS011;3556;53.500;10.176;2022-10-16T15:38:32;1.40;;;1.30;;
7029;SDS011;3556;53.500;10.176;2022-10-16T15:40:58;4.40;;;1.03;;
7029;SDS011;3556;53.500;10.176;2022-10-16T15:43:23;3.20;;;1.47;;
7029;SDS011;3556;53.500;10.176;2022-10-16T15:48:25;3.40;;;1.13;;
7029;SDS011;3556;53.500;10.176;2022-10-16T15:50:50;2.33;;;1.30;;
7029;SDS011;3556;53.500;10.176;2022-10-16T15:53:16;3.43;;;1.30;;
7029;SDS011;3556;53.500;10.176;2022-10-16T15:55:41;1.40;;;1.30;;
7029;SDS011;3556;53.500;10.176;2022-10-16T15:58:07;4.07;;;1.40;;
7029;SDS011;3556;53.500;10.176;2022-10-16T16:00:32;3.23;;;1.00;;
7029;SDS011;3556;53.500;10.176;2022-10-16T16:02:58;3.50;;;1.50;;
7029;SDS011;3556;53.500;10.176;2022-10-16T16:05:23;1.77;;;1.20;;
7029;SDS011;3556;53.500;10.176;2022-10-16T16:07:49;5.03;;;1.30;;
7029;SDS011;3556;53.500;10.176;2022-10-16T16:10:16;3.00;;;1.40;;
7029;SDS011;3556;53.500;10.176;2022-10-16T16:12:42;4.47;;;1.47;;
7029;SDS011;3556;53.500;10.176;2022-10-16T16:15:08;1.23;;;0.97;;
7029;SDS011;3556;53.500;10.176;2022-10-16T16:17:35;1.73;;;1.20;;
7029;SDS011;3556;53.500;10.176;2022-10-16T16:20:00;4.67;;;1.47;;
7029;SDS011;3556;53.500;10.176;2022-10-16T16:22:27;1.67;;;1.50;;
7029;SDS011;3556;53.500;10.176;2022-10-16T16:24:53;2.47;;;1.20;;
7029;SDS011;3556;53.500;10.176;2022-10-16T16:27:19;1.73;;;1.27;;
7029;SDS011;3556;53.500;10.176;2022-10-16T16:29:45;4.13;;;1.50;;
7029;SDS011;3556;53.500;10.176;2022-10-16T16:32:11;4.20;;;1.20;;
7029;SDS011;3556;53.500;10.176;2022-10-16T16:34:36;2.90;;;1.30;;
7029;SDS011;3556;53.500;10.176;2022-10-16T16:37:02;8.17;;;1.70;;
7029;SDS011;3556;53.500;10.176;2022-10-16T16:39:28;3.83;;;1.30;;
7029;SDS011;3556;53.500;10.176;2022-10-16T16:41:55;4.00;;;1.60;;
7029;SDS011;3556;53.500;10.176;2022-10-16T16:44:21;1.63;;;1.20;;
7029;SDS011;3556;53.500;10.176;2022-10-16T16:46:47;4.30;;;1.77;;
7029;SDS011;3556;53.500;10.176;2022-10-16T16:49:13;6.17;;;1.80;;
7029;SDS011;3556;53.500;10.176;2022-10-16T16:51:40;3.17;;;1.70;;
7029;SDS011;3556;53.500;10.176;2022-10-16T16:54:06;8.90;;;3.13;;
7029;SDS011;3556;53.500;10.176;2022-10-16T16:56:32;7.33;;;2.53;;
7029;SDS011;3556;53.500;10.176;2022-10-16T16:58:59;12.90;;;2.40;;
7029;SDS011;3556;53.500;10.176;2022-10-16T17:01:25;12.23;;;1.87;;
7029;SDS011;3556;53.500;10.176;2022-10-16T17:03:52;5.60;;;1.60;;
7029;SDS011;3556;53.500;10.176;2022-10-16T17:06:20;4.07;;;1.50;;
7029;SDS011;3556;53.500;10.176;2022-10-16T17:08:48;7.90;;;1.40;;
7029;SDS011;3556;53.500;10.176;2022-10-16T17:11:19;6.80;;;1.60;;
7029;SDS011;3556;53.500;10.176;2022-10-16T17:13:46;10.23;;;4.63;;
7029;SDS011;3556;53.500;10.176;2022-10-16T17:16:13;9.23;;;4.50;;
7029;SDS011;3556;53.500;10.176;2022-10-16T17:18:38;7.30;;;4.80;;
7029;SDS011;3556;53.500;10.176;2022-10-16T17:21:05;9.00;;;4.00;;
7029;SDS011;3556;53.500;10.176;2022-10-16T17:23:32;15.70;;;5.20;;
7029;SDS011;3556;53.500;10.176;2022-10-16T17:26:07;13.20;;;3.80;;
7029;SDS011;3556;53.500;10.176;2022-10-16T17:28:34;7.13;;;2.83;;
7029;SDS011;3556;53.500;10.176;2022-10-16T17:31:16;3.87;;;3.00;;
7029;SDS011;3556;53.500;10.176;2022-10-16T17:33:44;8.23;;;3.30;;
7029;SDS011;3556;53.500;10.176;2022-10-16T17:36:10;8.53;;;4.20;;